sensor_id;sensor_type;location;lat;lon;timestamp;temperature;humidity
73777;DHT22;62088;50.240;2.696;2022-12-07T00:01:32;2.50;85.70
73777;DHT22;62088;50.240;2.696;2022-12-07T00:04:01;2.50;85.70
73777;DHT22;62088;50.240;2.696;2022-12-07T00:06:37;2.60;85.80
73777;DHT22;62088;50.240;2.696;2022-12-07T00:09:10;2.60;85.90
73777;DHT22;62088;50.240;2.696;2022-12-07T00:11:37;2.60;85.90
73777;DHT22;62088;50.240;2.696;2022-12-07T00:14:11;2.70;85.90
73777;DHT22;62088;50.240;2.696;2022-12-07T00:16:38;2.60;85.90
73777;DHT22;62088;50.240;2.696;2022-12-07T00:19:06;2.70;86.00
73777;DHT22;62088;50.240;2.696;2022-12-07T00:21:35;2.70;86.00
73777;DHT22;62088;50.240;2.696;2022-12-07T00:24:03;2.70;86.00
73777;DHT22;62088;50.240;2.696;2022-12-07T00:26:33;2.70;86.00
73777;DHT22;62088;50.240;2.696;2022-12-07T00:29:05;2.70;86.10
73777;DHT22;62088;50.240;2.696;2022-12-07T00:31:35;2.60;86.00
73777;DHT22;62088;50.240;2.696;2022-12-07T00:34:06;2.70;86.10
73777;DHT22;62088;50.240;2.696;2022-12-07T00:36:33;2.70;86.10
73777;DHT22;62088;50.240;2.696;2022-12-07T00:39:01;2.70;86.10
73777;DHT22;62088;50.240;2.696;2022-12-07T00:41:29;2.70;86.10
73777;DHT22;62088;50.240;2.696;2022-12-07T00:43:57;2.70;86.10
73777;DHT22;62088;50.240;2.696;2022-12-07T00:46:25;2.60;86.10
73777;DHT22;62088;50.240;2.696;2022-12-07T00:48:52;2.60;86.10
73777;DHT22;62088;50.240;2.696;2022-12-07T00:51:24;2.60;86.10
73777;DHT22;62088;50.240;2.696;2022-12-07T00:53:52;2.60;86.10
73777;DHT22;62088;50.240;2.696;2022-12-07T00:56:24;2.60;86.10
73777;DHT22;62088;50.240;2.696;2022-12-07T00:58:58;2.60;86.10
73777;DHT22;62088;50.240;2.696;2022-12-07T01:01:27;2.60;86.10
73777;DHT22;62088;50.240;2.696;2022-12-07T01:03:54;2.60;86.10
73777;DHT22;62088;50.240;2.696;2022-12-07T01:06:23;2.60;86.10
73777;DHT22;62088;50.240;2.696;2022-12-07T01:08:51;2.60;86.10
73777;DHT22;62088;50.240;2.696;2022-12-07T01:11:21;2.60;86.10
73777;DHT22;62088;50.240;2.696;2022-12-07T01:13:50;2.60;86.10
73777;DHT22;62088;50.240;2.696;2022-12-07T01:16:18;2.50;86.10
73777;DHT22;62088;50.240;2.696;2022-12-07T01:18:47;2.50;86.10
73777;DHT22;62088;50.240;2.696;2022-12-07T01:21:20;2.50;86.10
73777;DHT22;62088;50.240;2.696;2022-12-07T01:23:48;2.50;86.10
73777;DHT22;62088;50.240;2.696;2022-12-07T01:26:18;2.50;86.00
73777;DHT22;62088;50.240;2.696;2022-12-07T01:28:45;2.50;86.00
73777;DHT22;62088;50.240;2.696;2022-12-07T01:31:15;2.50;86.00
73777;DHT22;62088;50.240;2.696;2022-12-07T01:33:51;2.50;86.10
73777;DHT22;62088;50.240;2.696;2022-12-07T01:36:24;2.50;86.10
73777;DHT22;62088;50.240;2.696;2022-12-07T01:38:55;2.50;86.10
73777;DHT22;62088;50.240;2.696;2022-12-07T01:41:25;2.50;86.10
73777;DHT22;62088;50.240;2.696;2022-12-07T01:44:23;2.50;86.20
73777;DHT22;62088;50.240;2.696;2022-12-07T01:46:58;2.50;86.20
73777;DHT22;62088;50.240;2.696;2022-12-07T01:49:38;2.60;86.20
73777;DHT22;62088;50.240;2.696;2022-12-07T01:54:39;2.60;86.40
73777;DHT22;62088;50.240;2.696;2022-12-07T01:57:08;2.60;86.40
73777;DHT22;62088;50.240;2.696;2022-12-07T01:59:35;2.70;86.40
73777;DHT22;62088;50.240;2.696;2022-12-07T02:02:07;2.70;86.50
73777;DHT22;62088;50.240;2.696;2022-12-07T02:04:36;2.70;86.50
73777;DHT22;62088;50.240;2.696;2022-12-07T02:07:04;2.70;86.40
73777;DHT22;62088;50.240;2.696;2022-12-07T02:09:31;2.70;86.50
73777;DHT22;62088;50.240;2.696;2022-12-07T02:11:58;2.70;86.50
73777;DHT22;62088;50.240;2.696;2022-12-07T02:14:25;2.70;86.50
73777;DHT22;62088;50.240;2.696;2022-12-07T02:17:27;2.70;86.50
73777;DHT22;62088;50.240;2.696;2022-12-07T02:26:22;2.80;86.70
73777;DHT22;62088;50.240;2.696;2022-12-07T02:29:11;2.80;86.70
73777;DHT22;62088;50.240;2.696;2022-12-07T02:31:49;2.80;86.70
73777;DHT22;62088;50.240;2.696;2022-12-07T02:34:23;2.90;86.80
73777;DHT22;62088;50.240;2.696;2022-12-07T02:37:00;2.90;86.80
73777;DHT22;62088;50.240;2.696;2022-12-07T02:39:56;2.90;86.90
73777;DHT22;62088;50.240;2.696;2022-12-07T02:42:40;2.90;86.90
73777;DHT22;62088;50.240;2.696;2022-12-07T02:45:11;2.90;86.90
73777;DHT22;62088;50.240;2.696;2022-12-07T02:47:40;2.90;86.90
73777;DHT22;62088;50.240;2.696;2022-12-07T02:50:08;2.90;87.00
73777;DHT22;62088;50.240;2.696;2022-12-07T02:52:35;2.90;87.00
73777;DHT22;62088;50.240;2.696;2022-12-07T02:55:03;3.00;87.00
73777;DHT22;62088;50.240;2.696;2022-12-07T03:01:16;3.00;87.10
73777;DHT22;62088;50.240;2.696;2022-12-07T03:04:02;3.00;87.20
73777;DHT22;62088;50.240;2.696;2022-12-07T03:06:38;3.00;87.20
73777;DHT22;62088;50.240;2.696;2022-12-07T03:09:21;3.10;87.30
73777;DHT22;62088;50.240;2.696;2022-12-07T03:12:05;3.10;87.40
73777;DHT22;62088;50.240;2.696;2022-12-07T03:14:40;3.20;87.40
73777;DHT22;62088;50.240;2.696;2022-12-07T03:17:16;3.20;87.40
73777;DHT22;62088;50.240;2.696;2022-12-07T03:19:45;3.20;87.40
73777;DHT22;62088;50.240;2.696;2022-12-07T03:22:14;3.20;87.40
73777;DHT22;62088;50.240;2.696;2022-12-07T03:24:54;3.30;87.40
73777;DHT22;62088;50.240;2.696;2022-12-07T03:27:25;3.20;87.50
73777;DHT22;62088;50.240;2.696;2022-12-07T03:30:03;3.30;87.50
73777;DHT22;62088;50.240;2.696;2022-12-07T03:32:36;3.20;87.40
73777;DHT22;62088;50.240;2.696;2022-12-07T03:35:10;3.20;87.40
73777;DHT22;62088;50.240;2.696;2022-12-07T03:40:32;3.20;87.40
73777;DHT22;62088;50.240;2.696;2022-12-07T03:43:01;3.20;87.40
73777;DHT22;62088;50.240;2.696;2022-12-07T03:45:43;3.20;87.50
73777;DHT22;62088;50.240;2.696;2022-12-07T03:48:35;3.20;87.50
73777;DHT22;62088;50.240;2.696;2022-12-07T03:51:22;3.20;87.50
73777;DHT22;62088;50.240;2.696;2022-12-07T03:56:46;3.10;87.50
73777;DHT22;62088;50.240;2.696;2022-12-07T03:59:14;3.20;87.50
73777;DHT22;62088;50.240;2.696;2022-12-07T04:01:52;3.10;87.40
73777;DHT22;62088;50.240;2.696;2022-12-07T04:04:21;3.10;87.40
73777;DHT22;62088;50.240;2.696;2022-12-07T04:06:48;3.10;87.50
73777;DHT22;62088;50.240;2.696;2022-12-07T04:09:16;3.10;87.50
73777;DHT22;62088;50.240;2.696;2022-12-07T04:11:44;3.10;87.50
73777;DHT22;62088;50.240;2.696;2022-12-07T04:14:11;3.10;87.60
73777;DHT22;62088;50.240;2.696;2022-12-07T04:16:51;3.10;87.60
73777;DHT22;62088;50.240;2.696;2022-12-07T04:19:20;3.10;87.60
73777;DHT22;62088;50.240;2.696;2022-12-07T04:21:48;3.10;87.70
73777;DHT22;62088;50.240;2.696;2022-12-07T04:24:15;3.20;87.70
73777;DHT22;62088;50.240;2.696;2022-12-07T04:26:43;3.20;87.70
73777;DHT22;62088;50.240;2.696;2022-12-07T04:29:10;3.20;87.70
73777;DHT22;62088;50.240;2.696;2022-12-07T04:31:38;3.20;87.70
73777;DHT22;62088;50.240;2.696;2022-12-07T04:34:06;3.20;87.70
73777;DHT22;62088;50.240;2.696;2022-12-07T04:36:33;3.20;87.70
73777;DHT22;62088;50.240;2.696;2022-12-07T04:39:00;3.20;87.80
73777;DHT22;62088;50.240;2.696;2022-12-07T04:41:28;3.20;87.80
73777;DHT22;62088;50.240;2.696;2022-12-07T04:44:00;3.20;87.80
73777;DHT22;62088;50.240;2.696;2022-12-07T04:46:28;3.30;87.90
73777;DHT22;62088;50.240;2.696;2022-12-07T04:48:56;3.30;87.90
73777;DHT22;62088;50.240;2.696;2022-12-07T04:51:26;3.40;87.90
73777;DHT22;62088;50.240;2.696;2022-12-07T04:53:54;3.40;87.90
73777;DHT22;62088;50.240;2.696;2022-12-07T04:56:22;3.40;87.90
73777;DHT22;62088;50.240;2.696;2022-12-07T04:58:50;3.40;87.90
73777;DHT22;62088;50.240;2.696;2022-12-07T05:01:18;3.40;87.90
73777;DHT22;62088;50.240;2.696;2022-12-07T05:03:45;3.40;87.90
73777;DHT22;62088;50.240;2.696;2022-12-07T05:06:13;3.40;87.90
73777;DHT22;62088;50.240;2.696;2022-12-07T05:08:40;3.40;88.00
73777;DHT22;62088;50.240;2.696;2022-12-07T05:11:08;3.40;87.90
73777;DHT22;62088;50.240;2.696;2022-12-07T05:13:36;3.40;88.00
73777;DHT22;62088;50.240;2.696;2022-12-07T05:16:03;3.50;88.00
73777;DHT22;62088;50.240;2.696;2022-12-07T05:18:30;3.50;88.00
73777;DHT22;62088;50.240;2.696;2022-12-07T05:20:57;3.50;88.00
73777;DHT22;62088;50.240;2.696;2022-12-07T05:23:24;3.50;88.00
73777;DHT22;62088;50.240;2.696;2022-12-07T05:25:51;3.50;88.00
73777;DHT22;62088;50.240;2.696;2022-12-07T05:28:18;3.50;88.00
73777;DHT22;62088;50.240;2.696;2022-12-07T05:30:45;3.50;88.00
73777;DHT22;62088;50.240;2.696;2022-12-07T05:33:12;3.50;88.10
73777;DHT22;62088;50.240;2.696;2022-12-07T05:35:39;3.50;88.10
73777;DHT22;62088;50.240;2.696;2022-12-07T05:38:07;3.50;88.10
73777;DHT22;62088;50.240;2.696;2022-12-07T05:40:34;3.60;88.20
73777;DHT22;62088;50.240;2.696;2022-12-07T05:43:01;3.60;88.20
73777;DHT22;62088;50.240;2.696;2022-12-07T05:45:30;3.60;88.20
73777;DHT22;62088;50.240;2.696;2022-12-07T05:47:58;3.70;88.30
73777;DHT22;62088;50.240;2.696;2022-12-07T05:50:25;3.70;88.30
73777;DHT22;62088;50.240;2.696;2022-12-07T05:52:59;3.70;88.30
73777;DHT22;62088;50.240;2.696;2022-12-07T05:55:27;3.70;88.30
73777;DHT22;62088;50.240;2.696;2022-12-07T05:57:54;3.70;88.30
73777;DHT22;62088;50.240;2.696;2022-12-07T06:00:39;3.80;88.30
73777;DHT22;62088;50.240;2.696;2022-12-07T06:03:06;3.80;88.30
73777;DHT22;62088;50.240;2.696;2022-12-07T06:05:33;3.80;88.30
73777;DHT22;62088;50.240;2.696;2022-12-07T06:08:00;3.80;88.30
73777;DHT22;62088;50.240;2.696;2022-12-07T06:10:31;3.80;88.30
73777;DHT22;62088;50.240;2.696;2022-12-07T06:12:59;3.80;88.20
73777;DHT22;62088;50.240;2.696;2022-12-07T06:15:26;3.80;88.30
73777;DHT22;62088;50.240;2.696;2022-12-07T06:17:53;3.80;88.30
73777;DHT22;62088;50.240;2.696;2022-12-07T06:20:20;3.80;88.20
73777;DHT22;62088;50.240;2.696;2022-12-07T06:22:47;3.80;88.20
73777;DHT22;62088;50.240;2.696;2022-12-07T06:25:14;3.80;88.20
73777;DHT22;62088;50.240;2.696;2022-12-07T06:27:41;3.80;88.30
73777;DHT22;62088;50.240;2.696;2022-12-07T06:30:08;3.80;88.30
73777;DHT22;62088;50.240;2.696;2022-12-07T06:32:36;3.80;88.30
73777;DHT22;62088;50.240;2.696;2022-12-07T06:35:04;3.80;88.30
73777;DHT22;62088;50.240;2.696;2022-12-07T06:37:31;3.80;88.30
73777;DHT22;62088;50.240;2.696;2022-12-07T06:39:58;3.80;88.30
73777;DHT22;62088;50.240;2.696;2022-12-07T06:42:26;3.80;88.30
73777;DHT22;62088;50.240;2.696;2022-12-07T06:44:53;3.80;88.30
73777;DHT22;62088;50.240;2.696;2022-12-07T06:47:20;3.80;88.30
73777;DHT22;62088;50.240;2.696;2022-12-07T06:50:07;3.80;88.30
73777;DHT22;62088;50.240;2.696;2022-12-07T06:52:34;3.80;88.30
73777;DHT22;62088;50.240;2.696;2022-12-07T06:55:01;3.80;88.30
73777;DHT22;62088;50.240;2.696;2022-12-07T06:57:28;3.80;88.30
73777;DHT22;62088;50.240;2.696;2022-12-07T06:59:55;3.80;88.30
73777;DHT22;62088;50.240;2.696;2022-12-07T07:02:22;3.80;88.30
73777;DHT22;62088;50.240;2.696;2022-12-07T07:04:49;3.80;88.30
73777;DHT22;62088;50.240;2.696;2022-12-07T07:07:16;3.80;88.30
73777;DHT22;62088;50.240;2.696;2022-12-07T07:09:44;3.80;88.30
73777;DHT22;62088;50.240;2.696;2022-12-07T07:12:11;3.80;88.40
73777;DHT22;62088;50.240;2.696;2022-12-07T07:14:37;3.80;88.40
73777;DHT22;62088;50.240;2.696;2022-12-07T07:17:04;3.90;88.40
73777;DHT22;62088;50.240;2.696;2022-12-07T07:19:31;3.90;88.40
73777;DHT22;62088;50.240;2.696;2022-12-07T07:21:58;3.90;88.40
73777;DHT22;62088;50.240;2.696;2022-12-07T07:24:25;3.90;88.40
73777;DHT22;62088;50.240;2.696;2022-12-07T07:26:52;3.90;88.40
73777;DHT22;62088;50.240;2.696;2022-12-07T07:29:19;3.90;88.40
73777;DHT22;62088;50.240;2.696;2022-12-07T07:31:46;3.90;88.40
73777;DHT22;62088;50.240;2.696;2022-12-07T07:34:13;3.90;88.40
73777;DHT22;62088;50.240;2.696;2022-12-07T07:36:40;3.90;88.40
73777;DHT22;62088;50.240;2.696;2022-12-07T07:39:07;3.90;88.40
73777;DHT22;62088;50.240;2.696;2022-12-07T07:41:36;3.90;88.40
73777;DHT22;62088;50.240;2.696;2022-12-07T07:44:03;4.00;88.40
73777;DHT22;62088;50.240;2.696;2022-12-07T07:46:30;3.90;88.40
73777;DHT22;62088;50.240;2.696;2022-12-07T07:48:57;3.90;88.40
73777;DHT22;62088;50.240;2.696;2022-12-07T07:51:24;4.00;88.40
73777;DHT22;62088;50.240;2.696;2022-12-07T07:53:51;4.00;88.40
73777;DHT22;62088;50.240;2.696;2022-12-07T07:56:18;4.00;88.40
73777;DHT22;62088;50.240;2.696;2022-12-07T07:58:45;4.00;88.40
73777;DHT22;62088;50.240;2.696;2022-12-07T08:01:12;4.00;88.40
73777;DHT22;62088;50.240;2.696;2022-12-07T08:03:40;4.00;88.50
73777;DHT22;62088;50.240;2.696;2022-12-07T08:06:07;4.00;88.40
73777;DHT22;62088;50.240;2.696;2022-12-07T08:08:34;4.00;88.50
73777;DHT22;62088;50.240;2.696;2022-12-07T08:11:05;4.10;88.50
73777;DHT22;62088;50.240;2.696;2022-12-07T08:13:32;4.10;88.50
73777;DHT22;62088;50.240;2.696;2022-12-07T08:16:04;4.10;88.50
73777;DHT22;62088;50.240;2.696;2022-12-07T08:18:35;4.10;88.50
73777;DHT22;62088;50.240;2.696;2022-12-07T08:21:03;4.10;88.50
73777;DHT22;62088;50.240;2.696;2022-12-07T08:23:30;4.20;88.50
73777;DHT22;62088;50.240;2.696;2022-12-07T08:26:08;4.20;88.50
73777;DHT22;62088;50.240;2.696;2022-12-07T08:28:36;4.20;88.50
73777;DHT22;62088;50.240;2.696;2022-12-07T08:31:06;4.20;88.50
73777;DHT22;62088;50.240;2.696;2022-12-07T08:33:34;4.20;88.50
73777;DHT22;62088;50.240;2.696;2022-12-07T08:36:07;4.20;88.50
73777;DHT22;62088;50.240;2.696;2022-12-07T08:38:36;4.20;88.50
73777;DHT22;62088;50.240;2.696;2022-12-07T08:41:03;4.20;88.50
73777;DHT22;62088;50.240;2.696;2022-12-07T08:43:31;4.20;88.50
73777;DHT22;62088;50.240;2.696;2022-12-07T08:46:11;4.20;88.50
73777;DHT22;62088;50.240;2.696;2022-12-07T08:48:49;4.20;88.50
73777;DHT22;62088;50.240;2.696;2022-12-07T08:51:18;4.20;88.50
73777;DHT22;62088;50.240;2.696;2022-12-07T08:53:46;4.30;88.50
73777;DHT22;62088;50.240;2.696;2022-12-07T08:56:13;4.30;88.50
73777;DHT22;62088;50.240;2.696;2022-12-07T08:58:40;4.30;88.60
73777;DHT22;62088;50.240;2.696;2022-12-07T09:01:08;4.30;88.60
73777;DHT22;62088;50.240;2.696;2022-12-07T09:03:35;4.40;88.60
73777;DHT22;62088;50.240;2.696;2022-12-07T09:06:02;4.40;88.60
73777;DHT22;62088;50.240;2.696;2022-12-07T09:08:34;4.40;88.60
73777;DHT22;62088;50.240;2.696;2022-12-07T09:11:02;4.40;88.60
73777;DHT22;62088;50.240;2.696;2022-12-07T09:13:29;4.40;88.60
73777;DHT22;62088;50.240;2.696;2022-12-07T09:15:56;4.50;88.60
73777;DHT22;62088;50.240;2.696;2022-12-07T09:18:24;4.50;88.60
73777;DHT22;62088;50.240;2.696;2022-12-07T09:20:51;4.50;88.60
73777;DHT22;62088;50.240;2.696;2022-12-07T09:23:18;4.50;88.60
73777;DHT22;62088;50.240;2.696;2022-12-07T09:25:45;4.50;88.60
73777;DHT22;62088;50.240;2.696;2022-12-07T09:28:12;4.60;88.70
73777;DHT22;62088;50.240;2.696;2022-12-07T09:30:45;4.60;88.70
73777;DHT22;62088;50.240;2.696;2022-12-07T09:33:32;4.70;88.70
73777;DHT22;62088;50.240;2.696;2022-12-07T09:35:59;4.70;88.80
73777;DHT22;62088;50.240;2.696;2022-12-07T09:38:26;4.70;88.80
73777;DHT22;62088;50.240;2.696;2022-12-07T09:40:54;4.80;88.80
73777;DHT22;62088;50.240;2.696;2022-12-07T09:43:24;4.90;88.80
73777;DHT22;62088;50.240;2.696;2022-12-07T09:45:53;4.90;88.80
73777;DHT22;62088;50.240;2.696;2022-12-07T09:48:25;4.90;88.80
73777;DHT22;62088;50.240;2.696;2022-12-07T09:50:55;4.90;88.80
73777;DHT22;62088;50.240;2.696;2022-12-07T09:53:33;4.90;88.70
73777;DHT22;62088;50.240;2.696;2022-12-07T09:56:01;4.90;88.70
73777;DHT22;62088;50.240;2.696;2022-12-07T09:58:30;4.90;88.70
73777;DHT22;62088;50.240;2.696;2022-12-07T10:01:01;4.90;88.70
73777;DHT22;62088;50.240;2.696;2022-12-07T10:03:28;4.90;88.70
73777;DHT22;62088;50.240;2.696;2022-12-07T10:05:56;4.90;88.70
73777;DHT22;62088;50.240;2.696;2022-12-07T10:08:25;4.90;88.70
73777;DHT22;62088;50.240;2.696;2022-12-07T10:10:55;4.90;88.60
73777;DHT22;62088;50.240;2.696;2022-12-07T10:13:38;4.90;88.60
73777;DHT22;62088;50.240;2.696;2022-12-07T10:18:51;5.00;88.80
73777;DHT22;62088;50.240;2.696;2022-12-07T10:21:24;5.10;89.00
73777;DHT22;62088;50.240;2.696;2022-12-07T10:24:14;5.20;89.10
73777;DHT22;62088;50.240;2.696;2022-12-07T10:26:50;5.30;89.20
73777;DHT22;62088;50.240;2.696;2022-12-07T10:29:27;5.50;89.30
73777;DHT22;62088;50.240;2.696;2022-12-07T10:34:35;5.70;89.40
73777;DHT22;62088;50.240;2.696;2022-12-07T10:39:50;5.90;89.40
73777;DHT22;62088;50.240;2.696;2022-12-07T10:42:29;6.00;89.30
73777;DHT22;62088;50.240;2.696;2022-12-07T10:53:37;6.30;88.90
73777;DHT22;62088;50.240;2.696;2022-12-07T10:56:31;6.20;88.80
73777;DHT22;62088;50.240;2.696;2022-12-07T11:10:18;6.30;88.70
73777;DHT22;62088;50.240;2.696;2022-12-07T11:12:56;6.30;88.70
73777;DHT22;62088;50.240;2.696;2022-12-07T11:15:30;6.40;88.70
73777;DHT22;62088;50.240;2.696;2022-12-07T11:21:06;6.50;88.70
73777;DHT22;62088;50.240;2.696;2022-12-07T11:24:14;6.50;88.60
73777;DHT22;62088;50.240;2.696;2022-12-07T11:29:51;6.70;88.40
73777;DHT22;62088;50.240;2.696;2022-12-07T11:37:46;6.80;88.20
73777;DHT22;62088;50.240;2.696;2022-12-07T11:45:35;6.90;88.00
73777;DHT22;62088;50.240;2.696;2022-12-07T11:48:11;7.00;87.90
73777;DHT22;62088;50.240;2.696;2022-12-07T11:50:51;7.10;87.80
73777;DHT22;62088;50.240;2.696;2022-12-07T11:55:57;7.20;87.50
73777;DHT22;62088;50.240;2.696;2022-12-07T12:01:36;7.20;87.10
73777;DHT22;62088;50.240;2.696;2022-12-07T12:06:37;7.20;86.90
73777;DHT22;62088;50.240;2.696;2022-12-07T12:09:33;7.30;86.80
73777;DHT22;62088;50.240;2.696;2022-12-07T12:15:13;7.30;86.30
73777;DHT22;62088;50.240;2.696;2022-12-07T12:18:11;7.30;86.00
73777;DHT22;62088;50.240;2.696;2022-12-07T12:20:50;7.30;85.70
73777;DHT22;62088;50.240;2.696;2022-12-07T12:25:54;7.20;85.20
73777;DHT22;62088;50.240;2.696;2022-12-07T12:33:59;7.00;84.60
73777;DHT22;62088;50.240;2.696;2022-12-07T12:36:47;7.00;84.50
73777;DHT22;62088;50.240;2.696;2022-12-07T12:39:17;6.90;84.40
73777;DHT22;62088;50.240;2.696;2022-12-07T12:46:48;6.80;84.10
73777;DHT22;62088;50.240;2.696;2022-12-07T12:51:50;6.80;84.30
73777;DHT22;62088;50.240;2.696;2022-12-07T13:02:50;7.00;85.00
73777;DHT22;62088;50.240;2.696;2022-12-07T13:05:27;7.20;84.90
73777;DHT22;62088;50.240;2.696;2022-12-07T13:08:29;7.20;84.90
73777;DHT22;62088;50.240;2.696;2022-12-07T13:11:41;7.30;84.80
73777;DHT22;62088;50.240;2.696;2022-12-07T13:14:37;7.40;84.60
73777;DHT22;62088;50.240;2.696;2022-12-07T13:17:10;7.40;84.40
73777;DHT22;62088;50.240;2.696;2022-12-07T13:24:57;7.50;83.80
73777;DHT22;62088;50.240;2.696;2022-12-07T13:27:27;7.50;83.60
73777;DHT22;62088;50.240;2.696;2022-12-07T13:29:56;7.50;83.40
73777;DHT22;62088;50.240;2.696;2022-12-07T13:32:26;7.50;83.10
73777;DHT22;62088;50.240;2.696;2022-12-07T13:34:53;7.50;82.90
73777;DHT22;62088;50.240;2.696;2022-12-07T13:37:28;7.40;82.70
73777;DHT22;62088;50.240;2.696;2022-12-07T13:40:21;7.40;82.50
73777;DHT22;62088;50.240;2.696;2022-12-07T13:43:03;7.40;82.30
73777;DHT22;62088;50.240;2.696;2022-12-07T13:45:32;7.40;82.30
73777;DHT22;62088;50.240;2.696;2022-12-07T13:48:22;7.40;82.40
73777;DHT22;62088;50.240;2.696;2022-12-07T13:50:55;7.40;82.40
73777;DHT22;62088;50.240;2.696;2022-12-07T13:53:23;7.40;82.40
73777;DHT22;62088;50.240;2.696;2022-12-07T13:55:58;7.40;82.40
73777;DHT22;62088;50.240;2.696;2022-12-07T13:58:27;7.40;82.30
73777;DHT22;62088;50.240;2.696;2022-12-07T14:00:56;7.40;82.20
73777;DHT22;62088;50.240;2.696;2022-12-07T14:03:30;7.40;82.00
73777;DHT22;62088;50.240;2.696;2022-12-07T14:06:06;7.40;81.90
73777;DHT22;62088;50.240;2.696;2022-12-07T14:08:33;7.30;81.80
73777;DHT22;62088;50.240;2.696;2022-12-07T14:11:00;7.30;81.60
73777;DHT22;62088;50.240;2.696;2022-12-07T14:14:00;7.20;81.50
73777;DHT22;62088;50.240;2.696;2022-12-07T14:18:56;7.10;81.40
73777;DHT22;62088;50.240;2.696;2022-12-07T14:21:26;7.10;81.40
73777;DHT22;62088;50.240;2.696;2022-12-07T14:24:18;7.10;81.30
73777;DHT22;62088;50.240;2.696;2022-12-07T14:26:48;7.00;81.20
73777;DHT22;62088;50.240;2.696;2022-12-07T14:31:56;6.90;81.10
73777;DHT22;62088;50.240;2.696;2022-12-07T14:34:23;6.90;81.20
73777;DHT22;62088;50.240;2.696;2022-12-07T14:36:51;6.80;81.20
73777;DHT22;62088;50.240;2.696;2022-12-07T14:39:18;6.70;81.20
73777;DHT22;62088;50.240;2.696;2022-12-07T14:41:45;6.70;81.20
73777;DHT22;62088;50.240;2.696;2022-12-07T14:44:20;6.60;81.30
73777;DHT22;62088;50.240;2.696;2022-12-07T14:46:52;6.60;81.30
73777;DHT22;62088;50.240;2.696;2022-12-07T14:49:40;6.50;81.40
73777;DHT22;62088;50.240;2.696;2022-12-07T14:52:18;6.50;81.40
73777;DHT22;62088;50.240;2.696;2022-12-07T14:55:20;6.40;81.50
73777;DHT22;62088;50.240;2.696;2022-12-07T14:57:48;6.40;81.50
73777;DHT22;62088;50.240;2.696;2022-12-07T15:00:16;6.30;81.60
73777;DHT22;62088;50.240;2.696;2022-12-07T15:02:46;6.30;81.60
73777;DHT22;62088;50.240;2.696;2022-12-07T15:05:14;6.20;81.60
73777;DHT22;62088;50.240;2.696;2022-12-07T15:07:43;6.20;81.50
73777;DHT22;62088;50.240;2.696;2022-12-07T15:10:19;6.20;81.60
73777;DHT22;62088;50.240;2.696;2022-12-07T15:12:51;6.10;81.60
73777;DHT22;62088;50.240;2.696;2022-12-07T15:15:18;6.00;81.60
73777;DHT22;62088;50.240;2.696;2022-12-07T15:17:45;6.00;81.70
73777;DHT22;62088;50.240;2.696;2022-12-07T15:20:14;5.90;81.70
73777;DHT22;62088;50.240;2.696;2022-12-07T15:22:41;5.90;81.60
73777;DHT22;62088;50.240;2.696;2022-12-07T15:25:12;5.80;81.60
73777;DHT22;62088;50.240;2.696;2022-12-07T15:27:39;5.70;81.60
73777;DHT22;62088;50.240;2.696;2022-12-07T15:30:06;5.70;81.60
73777;DHT22;62088;50.240;2.696;2022-12-07T15:32:34;5.70;81.60
73777;DHT22;62088;50.240;2.696;2022-12-07T15:35:01;5.60;81.50
73777;DHT22;62088;50.240;2.696;2022-12-07T15:37:28;5.50;81.40
73777;DHT22;62088;50.240;2.696;2022-12-07T15:39:55;5.50;81.30
73777;DHT22;62088;50.240;2.696;2022-12-07T15:42:22;5.40;81.30
73777;DHT22;62088;50.240;2.696;2022-12-07T15:44:49;5.30;81.30
73777;DHT22;62088;50.240;2.696;2022-12-07T15:47:35;5.30;81.40
73777;DHT22;62088;50.240;2.696;2022-12-07T15:50:23;5.20;81.50
73777;DHT22;62088;50.240;2.696;2022-12-07T15:52:50;5.20;81.60
73777;DHT22;62088;50.240;2.696;2022-12-07T15:55:17;5.10;81.80
73777;DHT22;62088;50.240;2.696;2022-12-07T15:57:44;5.00;81.80
73777;DHT22;62088;50.240;2.696;2022-12-07T16:00:11;5.00;81.90
73777;DHT22;62088;50.240;2.696;2022-12-07T16:02:39;5.00;82.00
73777;DHT22;62088;50.240;2.696;2022-12-07T16:05:06;4.90;82.10
73777;DHT22;62088;50.240;2.696;2022-12-07T16:07:33;4.90;82.20
73777;DHT22;62088;50.240;2.696;2022-12-07T16:10:00;4.80;82.20
73777;DHT22;62088;50.240;2.696;2022-12-07T16:12:27;4.80;82.30
73777;DHT22;62088;50.240;2.696;2022-12-07T16:14:54;4.70;82.30
73777;DHT22;62088;50.240;2.696;2022-12-07T16:17:21;4.70;82.40
73777;DHT22;62088;50.240;2.696;2022-12-07T16:19:48;4.60;82.40
73777;DHT22;62088;50.240;2.696;2022-12-07T16:22:15;4.60;82.40
73777;DHT22;62088;50.240;2.696;2022-12-07T16:24:42;4.50;82.30
73777;DHT22;62088;50.240;2.696;2022-12-07T16:27:09;4.50;82.30
73777;DHT22;62088;50.240;2.696;2022-12-07T16:29:36;4.50;82.30
73777;DHT22;62088;50.240;2.696;2022-12-07T16:32:03;4.40;82.40
73777;DHT22;62088;50.240;2.696;2022-12-07T16:34:30;4.40;82.50
73777;DHT22;62088;50.240;2.696;2022-12-07T16:36:57;4.40;82.70
73777;DHT22;62088;50.240;2.696;2022-12-07T16:39:31;4.30;82.80
73777;DHT22;62088;50.240;2.696;2022-12-07T16:41:58;4.30;82.90
73777;DHT22;62088;50.240;2.696;2022-12-07T16:44:25;4.30;82.90
73777;DHT22;62088;50.240;2.696;2022-12-07T16:46:52;4.20;83.00
73777;DHT22;62088;50.240;2.696;2022-12-07T16:49:19;4.20;83.00
73777;DHT22;62088;50.240;2.696;2022-12-07T16:51:49;4.20;83.10
73777;DHT22;62088;50.240;2.696;2022-12-07T16:54:36;4.10;83.20
73777;DHT22;62088;50.240;2.696;2022-12-07T16:57:03;4.10;83.10
73777;DHT22;62088;50.240;2.696;2022-12-07T16:59:30;4.10;83.00
73777;DHT22;62088;50.240;2.696;2022-12-07T17:01:58;4.00;83.00
73777;DHT22;62088;50.240;2.696;2022-12-07T17:04:25;4.00;82.90
73777;DHT22;62088;50.240;2.696;2022-12-07T17:06:52;4.00;82.90
73777;DHT22;62088;50.240;2.696;2022-12-07T17:09:19;4.00;82.90
73777;DHT22;62088;50.240;2.696;2022-12-07T17:11:47;3.90;82.90
73777;DHT22;62088;50.240;2.696;2022-12-07T17:14:14;3.90;82.90
73777;DHT22;62088;50.240;2.696;2022-12-07T17:17:00;3.90;82.90
73777;DHT22;62088;50.240;2.696;2022-12-07T17:19:27;3.90;82.90
73777;DHT22;62088;50.240;2.696;2022-12-07T17:21:54;3.90;82.90
73777;DHT22;62088;50.240;2.696;2022-12-07T17:24:21;3.80;82.80
73777;DHT22;62088;50.240;2.696;2022-12-07T17:26:49;3.70;82.80
73777;DHT22;62088;50.240;2.696;2022-12-07T17:29:17;3.70;82.80
73777;DHT22;62088;50.240;2.696;2022-12-07T17:31:46;3.70;82.80
73777;DHT22;62088;50.240;2.696;2022-12-07T17:34:17;3.70;82.80
73777;DHT22;62088;50.240;2.696;2022-12-07T17:36:45;3.60;82.80
73777;DHT22;62088;50.240;2.696;2022-12-07T17:39:15;3.60;82.80
73777;DHT22;62088;50.240;2.696;2022-12-07T17:41:43;3.60;82.80
73777;DHT22;62088;50.240;2.696;2022-12-07T17:44:42;3.50;82.70
73777;DHT22;62088;50.240;2.696;2022-12-07T17:47:09;3.50;82.60
73777;DHT22;62088;50.240;2.696;2022-12-07T17:49:36;3.50;82.60
73777;DHT22;62088;50.240;2.696;2022-12-07T17:52:04;3.40;82.60
73777;DHT22;62088;50.240;2.696;2022-12-07T17:55:09;3.40;82.60
73777;DHT22;62088;50.240;2.696;2022-12-07T17:57:36;3.40;82.60
73777;DHT22;62088;50.240;2.696;2022-12-07T18:00:05;3.40;82.70